sensor_id;sensor_type;location;lat;lon;timestamp;temperature;humidity
16515;DHT22;8370;52.556;7.970;2023-06-22T00:01:06;18.80;99.90
16515;DHT22;8370;52.556;7.970;2023-06-22T00:03:31;18.80;99.90
16515;DHT22;8370;52.556;7.970;2023-06-22T00:05:57;18.80;99.90
16515;DHT22;8370;52.556;7.970;2023-06-22T00:08:22;18.70;99.90
16515;DHT22;8370;52.556;7.970;2023-06-22T00:10:47;18.70;99.90
16515;DHT22;8370;52.556;7.970;2023-06-22T00:13:14;18.70;99.90
16515;DHT22;8370;52.556;7.970;2023-06-22T00:15:41;18.70;99.90
16515;DHT22;8370;52.556;7.970;2023-06-22T00:18:07;18.70;99.90
16515;DHT22;8370;52.556;7.970;2023-06-22T00:20:32;18.70;99.90
16515;DHT22;8370;52.556;7.970;2023-06-22T00:22:59;18.70;99.90
16515;DHT22;8370;52.556;7.970;2023-06-22T00:25:25;18.60;99.90
16515;DHT22;8370;52.556;7.970;2023-06-22T00:27:50;18.60;99.90
16515;DHT22;8370;52.556;7.970;2023-06-22T00:30:16;18.60;99.90
16515;DHT22;8370;52.556;7.970;2023-06-22T00:32:42;18.60;99.90
16515;DHT22;8370;52.556;7.970;2023-06-22T00:35:07;18.60;99.90
16515;DHT22;8370;52.556;7.970;2023-06-22T00:37:34;18.50;99.90
16515;DHT22;8370;52.556;7.970;2023-06-22T00:40:01;18.50;99.90
16515;DHT22;8370;52.556;7.970;2023-06-22T00:42:26;18.40;99.90
16515;DHT22;8370;52.556;7.970;2023-06-22T00:44:52;18.40;99.90
16515;DHT22;8370;52.556;7.970;2023-06-22T00:47:17;18.40;99.90
16515;DHT22;8370;52.556;7.970;2023-06-22T00:49:43;18.30;99.90
16515;DHT22;8370;52.556;7.970;2023-06-22T00:52:09;18.40;99.90
16515;DHT22;8370;52.556;7.970;2023-06-22T00:54:42;18.30;99.90
16515;DHT22;8370;52.556;7.970;2023-06-22T00:57:11;18.30;99.90
16515;DHT22;8370;52.556;7.970;2023-06-22T00:59:37;18.20;99.90
16515;DHT22;8370;52.556;7.970;2023-06-22T01:02:05;18.20;99.90
16515;DHT22;8370;52.556;7.970;2023-06-22T01:04:34;18.20;99.90
16515;DHT22;8370;52.556;7.970;2023-06-22T01:07:05;18.10;99.90
16515;DHT22;8370;52.556;7.970;2023-06-22T01:09:35;18.10;99.90
16515;DHT22;8370;52.556;7.970;2023-06-22T01:12:06;18.00;99.90
16515;DHT22;8370;52.556;7.970;2023-06-22T01:14:37;18.00;99.90
16515;DHT22;8370;52.556;7.970;2023-06-22T01:17:05;18.00;99.90
16515;DHT22;8370;52.556;7.970;2023-06-22T01:19:41;17.90;99.90
16515;DHT22;8370;52.556;7.970;2023-06-22T01:22:09;17.90;99.90
16515;DHT22;8370;52.556;7.970;2023-06-22T01:24:55;17.90;99.90
16515;DHT22;8370;52.556;7.970;2023-06-22T01:30:06;17.80;99.90
16515;DHT22;8370;52.556;7.970;2023-06-22T01:32:33;17.70;99.90
16515;DHT22;8370;52.556;7.970;2023-06-22T01:35:00;17.70;99.90
16515;DHT22;8370;52.556;7.970;2023-06-22T01:37:26;17.70;99.90
16515;DHT22;8370;52.556;7.970;2023-06-22T01:39:52;17.70;99.90
16515;DHT22;8370;52.556;7.970;2023-06-22T01:42:19;17.70;99.90
16515;DHT22;8370;52.556;7.970;2023-06-22T01:44:44;17.70;99.90
16515;DHT22;8370;52.556;7.970;2023-06-22T01:47:10;17.60;99.90
16515;DHT22;8370;52.556;7.970;2023-06-22T01:49:39;17.60;99.90
16515;DHT22;8370;52.556;7.970;2023-06-22T01:52:05;17.60;99.90
16515;DHT22;8370;52.556;7.970;2023-06-22T01:54:31;17.60;99.90
16515;DHT22;8370;52.556;7.970;2023-06-22T01:56:56;17.50;99.90
16515;DHT22;8370;52.556;7.970;2023-06-22T01:59:37;17.50;99.90
16515;DHT22;8370;52.556;7.970;2023-06-22T02:02:06;17.40;99.90
16515;DHT22;8370;52.556;7.970;2023-06-22T02:04:34;17.40;99.90
16515;DHT22;8370;52.556;7.970;2023-06-22T02:07:01;17.40;99.90
16515;DHT22;8370;52.556;7.970;2023-06-22T02:09:30;17.40;99.90
16515;DHT22;8370;52.556;7.970;2023-06-22T02:11:56;17.40;99.90
16515;DHT22;8370;52.556;7.970;2023-06-22T02:14:23;17.40;99.90
16515;DHT22;8370;52.556;7.970;2023-06-22T02:16:49;17.30;99.90
16515;DHT22;8370;52.556;7.970;2023-06-22T02:19:15;17.40;99.90
16515;DHT22;8370;52.556;7.970;2023-06-22T02:21:41;17.30;99.90
16515;DHT22;8370;52.556;7.970;2023-06-22T02:24:06;17.40;99.90
16515;DHT22;8370;52.556;7.970;2023-06-22T02:26:32;17.40;99.90
16515;DHT22;8370;52.556;7.970;2023-06-22T02:28:58;17.30;99.90
16515;DHT22;8370;52.556;7.970;2023-06-22T02:31:23;17.30;99.90
16515;DHT22;8370;52.556;7.970;2023-06-22T02:33:58;17.20;99.90
16515;DHT22;8370;52.556;7.970;2023-06-22T02:36:24;17.30;99.90
16515;DHT22;8370;52.556;7.970;2023-06-22T02:38:51;17.30;99.90
16515;DHT22;8370;52.556;7.970;2023-06-22T02:41:17;17.30;99.90
16515;DHT22;8370;52.556;7.970;2023-06-22T02:43:46;17.20;99.90
16515;DHT22;8370;52.556;7.970;2023-06-22T02:46:13;17.30;99.90
16515;DHT22;8370;52.556;7.970;2023-06-22T02:48:39;17.20;99.90
16515;DHT22;8370;52.556;7.970;2023-06-22T02:51:05;17.20;99.90
16515;DHT22;8370;52.556;7.970;2023-06-22T02:53:30;17.20;99.90
16515;DHT22;8370;52.556;7.970;2023-06-22T02:55:56;17.20;99.90
16515;DHT22;8370;52.556;7.970;2023-06-22T02:58:21;17.20;99.90
16515;DHT22;8370;52.556;7.970;2023-06-22T03:00:46;17.20;99.90
16515;DHT22;8370;52.556;7.970;2023-06-22T03:03:12;17.20;99.90
16515;DHT22;8370;52.556;7.970;2023-06-22T03:05:37;17.10;99.90
16515;DHT22;8370;52.556;7.970;2023-06-22T03:08:03;17.10;99.90
16515;DHT22;8370;52.556;7.970;2023-06-22T03:10:28;17.10;99.90
16515;DHT22;8370;52.556;7.970;2023-06-22T03:12:54;17.10;99.90
16515;DHT22;8370;52.556;7.970;2023-06-22T03:15:20;17.10;99.90
16515;DHT22;8370;52.556;7.970;2023-06-22T03:17:45;17.00;99.90
16515;DHT22;8370;52.556;7.970;2023-06-22T03:20:11;17.00;99.90
16515;DHT22;8370;52.556;7.970;2023-06-22T03:22:40;17.00;99.90
16515;DHT22;8370;52.556;7.970;2023-06-22T03:25:06;17.10;99.90
16515;DHT22;8370;52.556;7.970;2023-06-22T03:27:39;17.10;99.90
16515;DHT22;8370;52.556;7.970;2023-06-22T03:30:05;17.10;99.90
16515;DHT22;8370;52.556;7.970;2023-06-22T03:32:30;17.10;99.90
16515;DHT22;8370;52.556;7.970;2023-06-22T03:34:56;17.10;99.90
16515;DHT22;8370;52.556;7.970;2023-06-22T03:37:24;17.10;99.90
16515;DHT22;8370;52.556;7.970;2023-06-22T03:39:50;17.10;99.90
16515;DHT22;8370;52.556;7.970;2023-06-22T03:42:15;17.10;99.90
16515;DHT22;8370;52.556;7.970;2023-06-22T03:44:40;17.10;99.90
16515;DHT22;8370;52.556;7.970;2023-06-22T03:47:06;17.10;99.90
16515;DHT22;8370;52.556;7.970;2023-06-22T03:49:32;17.10;99.90
16515;DHT22;8370;52.556;7.970;2023-06-22T03:51:58;17.10;99.90
16515;DHT22;8370;52.556;7.970;2023-06-22T03:54:23;17.10;99.90
16515;DHT22;8370;52.556;7.970;2023-06-22T03:56:49;17.20;99.90
16515;DHT22;8370;52.556;7.970;2023-06-22T03:59:14;17.20;99.90
16515;DHT22;8370;52.556;7.970;2023-06-22T04:01:40;17.20;99.90
16515;DHT22;8370;52.556;7.970;2023-06-22T04:04:05;17.20;99.90
16515;DHT22;8370;52.556;7.970;2023-06-22T04:06:30;17.30;99.90
16515;DHT22;8370;52.556;7.970;2023-06-22T04:08:56;17.30;99.90
16515;DHT22;8370;52.556;7.970;2023-06-22T04:11:21;17.30;99.90
16515;DHT22;8370;52.556;7.970;2023-06-22T04:13:47;17.30;99.90
16515;DHT22;8370;52.556;7.970;2023-06-22T04:16:14;17.40;99.90
16515;DHT22;8370;52.556;7.970;2023-06-22T04:18:39;17.40;99.90
16515;DHT22;8370;52.556;7.970;2023-06-22T04:21:04;17.40;99.90
16515;DHT22;8370;52.556;7.970;2023-06-22T04:23:30;17.50;99.90
16515;DHT22;8370;52.556;7.970;2023-06-22T04:25:55;17.50;99.90
16515;DHT22;8370;52.556;7.970;2023-06-22T04:28:21;17.50;99.90
16515;DHT22;8370;52.556;7.970;2023-06-22T04:30:47;17.50;99.90
16515;DHT22;8370;52.556;7.970;2023-06-22T04:33:15;17.50;99.90
16515;DHT22;8370;52.556;7.970;2023-06-22T04:35:41;17.50;99.90
16515;DHT22;8370;52.556;7.970;2023-06-22T04:38:09;17.50;99.90
16515;DHT22;8370;52.556;7.970;2023-06-22T04:40:35;17.60;99.90
16515;DHT22;8370;52.556;7.970;2023-06-22T04:43:01;17.60;99.90
16515;DHT22;8370;52.556;7.970;2023-06-22T04:45:28;17.60;99.90
16515;DHT22;8370;52.556;7.970;2023-06-22T04:47:54;17.70;99.90
16515;DHT22;8370;52.556;7.970;2023-06-22T04:50:19;17.80;99.90
16515;DHT22;8370;52.556;7.970;2023-06-22T04:52:46;17.80;99.90
16515;DHT22;8370;52.556;7.970;2023-06-22T04:55:12;17.90;99.90
16515;DHT22;8370;52.556;7.970;2023-06-22T04:57:37;17.90;99.90
16515;DHT22;8370;52.556;7.970;2023-06-22T05:00:04;18.00;99.90
16515;DHT22;8370;52.556;7.970;2023-06-22T05:02:40;18.00;99.90
16515;DHT22;8370;52.556;7.970;2023-06-22T05:05:05;18.10;99.90
16515;DHT22;8370;52.556;7.970;2023-06-22T05:07:33;18.10;99.90
16515;DHT22;8370;52.556;7.970;2023-06-22T05:09:58;18.10;99.90
16515;DHT22;8370;52.556;7.970;2023-06-22T05:12:24;18.10;99.90
16515;DHT22;8370;52.556;7.970;2023-06-22T05:14:49;18.10;99.90
16515;DHT22;8370;52.556;7.970;2023-06-22T05:17:14;18.20;99.90
16515;DHT22;8370;52.556;7.970;2023-06-22T05:19:44;18.20;99.90
16515;DHT22;8370;52.556;7.970;2023-06-22T05:22:16;18.30;99.90
16515;DHT22;8370;52.556;7.970;2023-06-22T05:24:42;18.40;99.90
16515;DHT22;8370;52.556;7.970;2023-06-22T05:27:08;18.50;99.90
16515;DHT22;8370;52.556;7.970;2023-06-22T05:29:33;18.60;99.90
16515;DHT22;8370;52.556;7.970;2023-06-22T05:31:58;18.70;99.90
16515;DHT22;8370;52.556;7.970;2023-06-22T05:34:24;18.80;99.90
16515;DHT22;8370;52.556;7.970;2023-06-22T05:36:49;18.90;99.90
16515;DHT22;8370;52.556;7.970;2023-06-22T05:39:15;19.00;99.90
16515;DHT22;8370;52.556;7.970;2023-06-22T05:41:40;19.00;99.90
16515;DHT22;8370;52.556;7.970;2023-06-22T05:44:06;19.00;99.90
16515;DHT22;8370;52.556;7.970;2023-06-22T05:46:31;19.10;99.90
16515;DHT22;8370;52.556;7.970;2023-06-22T05:48:57;19.00;99.90
16515;DHT22;8370;52.556;7.970;2023-06-22T05:51:22;19.00;99.90
16515;DHT22;8370;52.556;7.970;2023-06-22T05:53:48;19.00;99.90
16515;DHT22;8370;52.556;7.970;2023-06-22T05:56:15;19.00;99.90
16515;DHT22;8370;52.556;7.970;2023-06-22T05:58:41;19.00;99.90
16515;DHT22;8370;52.556;7.970;2023-06-22T06:01:06;19.00;99.90
16515;DHT22;8370;52.556;7.970;2023-06-22T06:03:32;19.00;99.90
16515;DHT22;8370;52.556;7.970;2023-06-22T06:05:57;19.10;99.90
16515;DHT22;8370;52.556;7.970;2023-06-22T06:08:22;19.10;99.90
16515;DHT22;8370;52.556;7.970;2023-06-22T06:10:48;19.10;99.90
16515;DHT22;8370;52.556;7.970;2023-06-22T06:13:13;19.20;99.90
16515;DHT22;8370;52.556;7.970;2023-06-22T06:15:39;19.20;99.90
16515;DHT22;8370;52.556;7.970;2023-06-22T06:18:05;19.30;99.90
16515;DHT22;8370;52.556;7.970;2023-06-22T06:20:31;19.30;99.90
16515;DHT22;8370;52.556;7.970;2023-06-22T06:22:57;19.40;99.90
16515;DHT22;8370;52.556;7.970;2023-06-22T06:25:22;19.50;99.90
16515;DHT22;8370;52.556;7.970;2023-06-22T06:27:48;19.60;99.90
16515;DHT22;8370;52.556;7.970;2023-06-22T06:30:14;19.70;99.90
16515;DHT22;8370;52.556;7.970;2023-06-22T06:32:40;19.70;99.90
16515;DHT22;8370;52.556;7.970;2023-06-22T06:35:06;19.80;99.90
16515;DHT22;8370;52.556;7.970;2023-06-22T06:37:35;19.90;99.90
16515;DHT22;8370;52.556;7.970;2023-06-22T06:40:00;20.00;99.90
16515;DHT22;8370;52.556;7.970;2023-06-22T06:42:26;20.10;99.90
16515;DHT22;8370;52.556;7.970;2023-06-22T06:44:51;20.20;99.90
16515;DHT22;8370;52.556;7.970;2023-06-22T06:47:16;20.30;99.90
16515;DHT22;8370;52.556;7.970;2023-06-22T06:49:42;20.40;99.90
16515;DHT22;8370;52.556;7.970;2023-06-22T06:52:08;20.50;99.90
16515;DHT22;8370;52.556;7.970;2023-06-22T06:54:33;20.60;99.90
16515;DHT22;8370;52.556;7.970;2023-06-22T06:56:59;20.70;99.90
16515;DHT22;8370;52.556;7.970;2023-06-22T06:59:24;20.80;99.90
16515;DHT22;8370;52.556;7.970;2023-06-22T07:01:51;21.00;99.90
16515;DHT22;8370;52.556;7.970;2023-06-22T07:04:17;21.10;99.90
16515;DHT22;8370;52.556;7.970;2023-06-22T07:06:42;21.10;99.90
16515;DHT22;8370;52.556;7.970;2023-06-22T07:09:08;21.20;99.90
16515;DHT22;8370;52.556;7.970;2023-06-22T07:11:33;21.20;99.90
16515;DHT22;8370;52.556;7.970;2023-06-22T07:14:00;21.30;99.90
16515;DHT22;8370;52.556;7.970;2023-06-22T07:16:26;21.40;99.90
16515;DHT22;8370;52.556;7.970;2023-06-22T07:18:53;21.40;99.90
16515;DHT22;8370;52.556;7.970;2023-06-22T07:21:18;21.60;99.90
16515;DHT22;8370;52.556;7.970;2023-06-22T07:23:43;21.60;99.90
16515;DHT22;8370;52.556;7.970;2023-06-22T07:26:09;21.80;99.90
16515;DHT22;8370;52.556;7.970;2023-06-22T07:28:34;22.00;99.90
16515;DHT22;8370;52.556;7.970;2023-06-22T07:31:03;22.00;99.90
16515;DHT22;8370;52.556;7.970;2023-06-22T07:33:29;22.20;99.90
16515;DHT22;8370;52.556;7.970;2023-06-22T07:35:55;22.40;99.90
16515;DHT22;8370;52.556;7.970;2023-06-22T07:38:20;22.40;99.90
16515;DHT22;8370;52.556;7.970;2023-06-22T07:40:45;22.40;99.90
16515;DHT22;8370;52.556;7.970;2023-06-22T07:43:11;22.40;99.90
16515;DHT22;8370;52.556;7.970;2023-06-22T07:45:37;22.40;99.90
16515;DHT22;8370;52.556;7.970;2023-06-22T07:48:03;22.40;99.90
16515;DHT22;8370;52.556;7.970;2023-06-22T07:50:28;22.40;99.90
16515;DHT22;8370;52.556;7.970;2023-06-22T07:52:54;22.50;99.90
16515;DHT22;8370;52.556;7.970;2023-06-22T07:55:19;22.60;99.90
16515;DHT22;8370;52.556;7.970;2023-06-22T07:57:46;22.70;99.90
16515;DHT22;8370;52.556;7.970;2023-06-22T08:00:12;22.80;99.90
16515;DHT22;8370;52.556;7.970;2023-06-22T08:02:42;22.80;99.90
16515;DHT22;8370;52.556;7.970;2023-06-22T08:05:08;22.90;99.90
16515;DHT22;8370;52.556;7.970;2023-06-22T08:07:34;22.90;99.90
16515;DHT22;8370;52.556;7.970;2023-06-22T08:10:02;23.00;99.90
16515;DHT22;8370;52.556;7.970;2023-06-22T08:12:28;23.10;99.90
16515;DHT22;8370;52.556;7.970;2023-06-22T08:14:53;23.10;99.90
16515;DHT22;8370;52.556;7.970;2023-06-22T08:17:19;23.20;99.90
16515;DHT22;8370;52.556;7.970;2023-06-22T08:19:44;23.30;99.90
16515;DHT22;8370;52.556;7.970;2023-06-22T08:22:10;23.30;99.90
16515;DHT22;8370;52.556;7.970;2023-06-22T08:24:35;23.40;99.90
16515;DHT22;8370;52.556;7.970;2023-06-22T08:27:00;23.40;99.90
16515;DHT22;8370;52.556;7.970;2023-06-22T08:29:26;23.40;99.90
16515;DHT22;8370;52.556;7.970;2023-06-22T08:31:51;23.50;99.90
16515;DHT22;8370;52.556;7.970;2023-06-22T08:34:17;23.60;99.90
16515;DHT22;8370;52.556;7.970;2023-06-22T08:36:47;23.70;99.90
16515;DHT22;8370;52.556;7.970;2023-06-22T08:39:18;24.00;99.90
16515;DHT22;8370;52.556;7.970;2023-06-22T08:41:44;24.10;99.90
16515;DHT22;8370;52.556;7.970;2023-06-22T08:44:10;24.10;99.90
16515;DHT22;8370;52.556;7.970;2023-06-22T08:46:35;24.10;99.90
16515;DHT22;8370;52.556;7.970;2023-06-22T08:49:01;24.10;99.90
16515;DHT22;8370;52.556;7.970;2023-06-22T08:51:27;24.10;99.90
16515;DHT22;8370;52.556;7.970;2023-06-22T08:53:53;24.10;99.90
16515;DHT22;8370;52.556;7.970;2023-06-22T08:56:19;24.00;99.90
16515;DHT22;8370;52.556;7.970;2023-06-22T08:58:44;24.00;99.90
16515;DHT22;8370;52.556;7.970;2023-06-22T09:01:10;24.00;99.90
16515;DHT22;8370;52.556;7.970;2023-06-22T09:03:35;24.10;99.90
16515;DHT22;8370;52.556;7.970;2023-06-22T09:06:02;24.20;99.90
16515;DHT22;8370;52.556;7.970;2023-06-22T09:08:28;24.40;99.90
16515;DHT22;8370;52.556;7.970;2023-06-22T09:10:53;24.50;99.90
16515;DHT22;8370;52.556;7.970;2023-06-22T09:13:19;24.50;99.90
16515;DHT22;8370;52.556;7.970;2023-06-22T09:15:44;24.60;99.90
16515;DHT22;8370;52.556;7.970;2023-06-22T09:18:10;24.80;99.90
16515;DHT22;8370;52.556;7.970;2023-06-22T09:20:36;25.00;99.90
16515;DHT22;8370;52.556;7.970;2023-06-22T09:23:01;25.20;99.90
16515;DHT22;8370;52.556;7.970;2023-06-22T09:25:27;25.40;99.90
16515;DHT22;8370;52.556;7.970;2023-06-22T09:27:52;25.50;99.90
16515;DHT22;8370;52.556;7.970;2023-06-22T09:30:18;25.60;99.90
16515;DHT22;8370;52.556;7.970;2023-06-22T09:32:44;25.60;99.90
16515;DHT22;8370;52.556;7.970;2023-06-22T09:35:09;25.70;99.90
16515;DHT22;8370;52.556;7.970;2023-06-22T09:37:36;25.60;99.90
16515;DHT22;8370;52.556;7.970;2023-06-22T09:40:01;25.60;99.90
16515;DHT22;8370;52.556;7.970;2023-06-22T09:42:29;25.50;99.90
16515;DHT22;8370;52.556;7.970;2023-06-22T09:44:55;25.50;99.90
16515;DHT22;8370;52.556;7.970;2023-06-22T09:47:20;25.50;99.90
16515;DHT22;8370;52.556;7.970;2023-06-22T09:49:46;25.60;99.90
16515;DHT22;8370;52.556;7.970;2023-06-22T09:52:11;25.70;99.90
16515;DHT22;8370;52.556;7.970;2023-06-22T09:54:37;25.80;99.90
16515;DHT22;8370;52.556;7.970;2023-06-22T09:57:02;25.80;99.90
16515;DHT22;8370;52.556;7.970;2023-06-22T09:59:28;25.80;99.90
16515;DHT22;8370;52.556;7.970;2023-06-22T10:01:53;25.80;99.90
16515;DHT22;8370;52.556;7.970;2023-06-22T10:04:18;25.80;99.90
16515;DHT22;8370;52.556;7.970;2023-06-22T10:06:44;25.70;99.90
16515;DHT22;8370;52.556;7.970;2023-06-22T10:09:09;25.50;99.90
16515;DHT22;8370;52.556;7.970;2023-06-22T10:11:35;25.50;99.90
16515;DHT22;8370;52.556;7.970;2023-06-22T10:14:01;25.40;99.90
16515;DHT22;8370;52.556;7.970;2023-06-22T10:16:30;25.30;99.90
16515;DHT22;8370;52.556;7.970;2023-06-22T10:18:55;25.30;99.90
16515;DHT22;8370;52.556;7.970;2023-06-22T10:21:21;25.30;99.90
16515;DHT22;8370;52.556;7.970;2023-06-22T10:23:46;25.40;99.90
16515;DHT22;8370;52.556;7.970;2023-06-22T10:26:12;25.40;99.90
16515;DHT22;8370;52.556;7.970;2023-06-22T10:28:37;25.30;99.90
16515;DHT22;8370;52.556;7.970;2023-06-22T10:31:03;25.40;99.90
16515;DHT22;8370;52.556;7.970;2023-06-22T10:33:28;25.50;99.90
16515;DHT22;8370;52.556;7.970;2023-06-22T10:35:53;25.40;99.90
16515;DHT22;8370;52.556;7.970;2023-06-22T10:38:19;25.40;99.90
16515;DHT22;8370;52.556;7.970;2023-06-22T10:40:44;25.30;99.90
16515;DHT22;8370;52.556;7.970;2023-06-22T10:43:10;25.30;99.90
16515;DHT22;8370;52.556;7.970;2023-06-22T10:45:35;25.30;99.90
16515;DHT22;8370;52.556;7.970;2023-06-22T10:48:00;25.20;99.90
16515;DHT22;8370;52.556;7.970;2023-06-22T10:50:26;25.20;99.90
16515;DHT22;8370;52.556;7.970;2023-06-22T10:52:51;25.20;99.90
16515;DHT22;8370;52.556;7.970;2023-06-22T10:55:17;25.30;99.90
16515;DHT22;8370;52.556;7.970;2023-06-22T10:57:42;25.40;99.90
16515;DHT22;8370;52.556;7.970;2023-06-22T11:00:09;25.50;99.90
16515;DHT22;8370;52.556;7.970;2023-06-22T11:02:36;25.60;99.90
16515;DHT22;8370;52.556;7.970;2023-06-22T11:05:02;25.70;99.90
16515;DHT22;8370;52.556;7.970;2023-06-22T11:07:29;25.70;99.90
16515;DHT22;8370;52.556;7.970;2023-06-22T11:09:54;25.70;99.90
16515;DHT22;8370;52.556;7.970;2023-06-22T11:12:20;25.80;99.90
16515;DHT22;8370;52.556;7.970;2023-06-22T11:14:45;25.80;99.90
16515;DHT22;8370;52.556;7.970;2023-06-22T11:17:11;25.70;99.90
16515;DHT22;8370;52.556;7.970;2023-06-22T11:19:36;25.60;99.90
16515;DHT22;8370;52.556;7.970;2023-06-22T11:22:02;25.70;99.90
16515;DHT22;8370;52.556;7.970;2023-06-22T11:24:27;25.50;99.90
16515;DHT22;8370;52.556;7.970;2023-06-22T11:26:53;25.50;99.90
16515;DHT22;8370;52.556;7.970;2023-06-22T11:29:18;25.40;99.90
16515;DHT22;8370;52.556;7.970;2023-06-22T11:31:43;25.30;99.90
16515;DHT22;8370;52.556;7.970;2023-06-22T11:34:09;25.30;99.90
16515;DHT22;8370;52.556;7.970;2023-06-22T11:36:34;25.20;99.90
16515;DHT22;8370;52.556;7.970;2023-06-22T11:39:01;25.20;99.90
16515;DHT22;8370;52.556;7.970;2023-06-22T11:41:26;25.20;99.90
16515;DHT22;8370;52.556;7.970;2023-06-22T11:43:51;25.20;99.90
16515;DHT22;8370;52.556;7.970;2023-06-22T11:46:17;25.20;99.90
16515;DHT22;8370;52.556;7.970;2023-06-22T11:48:42;25.30;99.90
16515;DHT22;8370;52.556;7.970;2023-06-22T11:51:08;25.20;99.90
16515;DHT22;8370;52.556;7.970;2023-06-22T11:53:34;25.30;99.90
16515;DHT22;8370;52.556;7.970;2023-06-22T11:56:00;25.20;99.90
16515;DHT22;8370;52.556;7.970;2023-06-22T11:58:26;25.20;99.90
16515;DHT22;8370;52.556;7.970;2023-06-22T12:00:51;25.10;99.90
16515;DHT22;8370;52.556;7.970;2023-06-22T12:03:17;25.10;99.90
16515;DHT22;8370;52.556;7.970;2023-06-22T12:05:42;25.10;99.90
16515;DHT22;8370;52.556;7.970;2023-06-22T12:08:08;25.20;99.90
16515;DHT22;8370;52.556;7.970;2023-06-22T12:10:34;25.20;99.90
16515;DHT22;8370;52.556;7.970;2023-06-22T12:12:59;25.20;99.90
16515;DHT22;8370;52.556;7.970;2023-06-22T12:15:25;25.20;99.90
16515;DHT22;8370;52.556;7.970;2023-06-22T12:17:51;25.20;99.90
16515;DHT22;8370;52.556;7.970;2023-06-22T12:20:16;25.10;99.90
16515;DHT22;8370;52.556;7.970;2023-06-22T12:22:42;25.10;99.90
16515;DHT22;8370;52.556;7.970;2023-06-22T12:25:08;25.10;99.90
16515;DHT22;8370;52.556;7.970;2023-06-22T12:27:34;25.10;99.90
16515;DHT22;8370;52.556;7.970;2023-06-22T12:29:59;25.20;99.90
16515;DHT22;8370;52.556;7.970;2023-06-22T12:32:25;25.30;99.90
16515;DHT22;8370;52.556;7.970;2023-06-22T12:34:51;25.30;99.90
16515;DHT22;8370;52.556;7.970;2023-06-22T12:37:16;25.50;99.90
16515;DHT22;8370;52.556;7.970;2023-06-22T12:39:42;25.50;99.90
16515;DHT22;8370;52.556;7.970;2023-06-22T12:42:08;25.60;99.90
16515;DHT22;8370;52.556;7.970;2023-06-22T12:44:34;25.70;99.90
16515;DHT22;8370;52.556;7.970;2023-06-22T12:47:00;25.80;99.90
16515;DHT22;8370;52.556;7.970;2023-06-22T12:49:25;25.60;99.90
16515;DHT22;8370;52.556;7.970;2023-06-22T12:51:51;25.60;99.90
16515;DHT22;8370;52.556;7.970;2023-06-22T12:54:16;25.40;99.90
16515;DHT22;8370;52.556;7.970;2023-06-22T12:56:41;25.30;99.90
16515;DHT22;8370;52.556;7.970;2023-06-22T12:59:09;25.20;99.90
16515;DHT22;8370;52.556;7.970;2023-06-22T13:01:34;25.10;99.90
16515;DHT22;8370;52.556;7.970;2023-06-22T13:03:59;25.00;99.90
16515;DHT22;8370;52.556;7.970;2023-06-22T13:06:25;24.90;99.90
16515;DHT22;8370;52.556;7.970;2023-06-22T13:08:50;24.90;99.90
16515;DHT22;8370;52.556;7.970;2023-06-22T13:11:16;24.80;99.90
16515;DHT22;8370;52.556;7.970;2023-06-22T13:13:41;24.70;99.90
16515;DHT22;8370;52.556;7.970;2023-06-22T13:16:07;24.60;99.90
16515;DHT22;8370;52.556;7.970;2023-06-22T13:18:32;24.40;99.90
16515;DHT22;8370;52.556;7.970;2023-06-22T13:20:59;24.30;99.90
16515;DHT22;8370;52.556;7.970;2023-06-22T13:23:25;24.10;99.90
16515;DHT22;8370;52.556;7.970;2023-06-22T13:25:50;24.00;99.90
16515;DHT22;8370;52.556;7.970;2023-06-22T13:28:16;23.90;99.90
16515;DHT22;8370;52.556;7.970;2023-06-22T13:30:42;23.80;99.90
16515;DHT22;8370;52.556;7.970;2023-06-22T13:33:08;23.70;99.90
16515;DHT22;8370;52.556;7.970;2023-06-22T13:35:34;23.60;99.90
16515;DHT22;8370;52.556;7.970;2023-06-22T13:38:00;23.60;99.90
16515;DHT22;8370;52.556;7.970;2023-06-22T13:40:26;23.50;99.90
16515;DHT22;8370;52.556;7.970;2023-06-22T13:42:51;23.50;99.90
16515;DHT22;8370;52.556;7.970;2023-06-22T13:45:16;23.50;99.90
16515;DHT22;8370;52.556;7.970;2023-06-22T13:47:44;23.50;99.90
16515;DHT22;8370;52.556;7.970;2023-06-22T13:50:09;23.40;99.90
16515;DHT22;8370;52.556;7.970;2023-06-22T13:52:35;23.40;99.90
16515;DHT22;8370;52.556;7.970;2023-06-22T13:55:01;23.40;99.90
16515;DHT22;8370;52.556;7.970;2023-06-22T13:57:27;23.30;99.90
16515;DHT22;8370;52.556;7.970;2023-06-22T13:59:52;23.30;99.90
16515;DHT22;8370;52.556;7.970;2023-06-22T14:02:18;23.30;99.90
16515;DHT22;8370;52.556;7.970;2023-06-22T14:04:43;23.20;99.90
16515;DHT22;8370;52.556;7.970;2023-06-22T14:07:09;23.20;99.90
16515;DHT22;8370;52.556;7.970;2023-06-22T14:09:34;23.20;99.90
16515;DHT22;8370;52.556;7.970;2023-06-22T14:12:02;23.30;99.90
16515;DHT22;8370;52.556;7.970;2023-06-22T14:14:28;23.30;99.90
16515;DHT22;8370;52.556;7.970;2023-06-22T14:16:53;23.30;99.90
16515;DHT22;8370;52.556;7.970;2023-06-22T14:19:19;23.30;99.90
16515;DHT22;8370;52.556;7.970;2023-06-22T14:21:44;23.30;99.90
16515;DHT22;8370;52.556;7.970;2023-06-22T14:24:10;23.30;99.90
16515;DHT22;8370;52.556;7.970;2023-06-22T14:26:35;23.40;99.90
16515;DHT22;8370;52.556;7.970;2023-06-22T14:29:01;23.40;99.90
16515;DHT22;8370;52.556;7.970;2023-06-22T14:31:26;23.40;99.90
16515;DHT22;8370;52.556;7.970;2023-06-22T14:33:51;23.40;99.90
16515;DHT22;8370;52.556;7.970;2023-06-22T14:36:17;23.40;99.90
16515;DHT22;8370;52.556;7.970;2023-06-22T14:38:43;23.30;99.90
16515;DHT22;8370;52.556;7.970;2023-06-22T14:41:08;23.20;99.90
16515;DHT22;8370;52.556;7.970;2023-06-22T14:43:33;23.20;99.90
16515;DHT22;8370;52.556;7.970;2023-06-22T14:45:59;23.10;99.90
16515;DHT22;8370;52.556;7.970;2023-06-22T14:48:24;23.10;99.90
16515;DHT22;8370;52.556;7.970;2023-06-22T14:50:50;23.10;99.90
16515;DHT22;8370;52.556;7.970;2023-06-22T14:53:15;23.10;99.90
16515;DHT22;8370;52.556;7.970;2023-06-22T14:55:41;23.20;99.90
16515;DHT22;8370;52.556;7.970;2023-06-22T14:58:06;23.20;99.90
16515;DHT22;8370;52.556;7.970;2023-06-22T15:00:31;23.20;99.90
16515;DHT22;8370;52.556;7.970;2023-06-22T15:02:57;23.30;99.90
16515;DHT22;8370;52.556;7.970;2023-06-22T15:05:24;23.30;99.90
16515;DHT22;8370;52.556;7.970;2023-06-22T15:07:50;23.40;99.90
16515;DHT22;8370;52.556;7.970;2023-06-22T15:10:15;23.40;99.90
16515;DHT22;8370;52.556;7.970;2023-06-22T15:12:41;23.50;99.90
16515;DHT22;8370;52.556;7.970;2023-06-22T15:15:06;23.60;99.90
16515;DHT22;8370;52.556;7.970;2023-06-22T15:17:32;23.60;99.90
16515;DHT22;8370;52.556;7.970;2023-06-22T15:19:57;23.60;99.90
16515;DHT22;8370;52.556;7.970;2023-06-22T15:22:23;23.70;99.90
16515;DHT22;8370;52.556;7.970;2023-06-22T15:24:48;23.80;99.90
16515;DHT22;8370;52.556;7.970;2023-06-22T15:27:14;23.90;99.90
16515;DHT22;8370;52.556;7.970;2023-06-22T15:29:40;23.90;99.90
16515;DHT22;8370;52.556;7.970;2023-06-22T15:32:06;23.90;99.90
16515;DHT22;8370;52.556;7.970;2023-06-22T15:34:31;23.80;99.90
16515;DHT22;8370;52.556;7.970;2023-06-22T15:36:57;23.70;99.90
16515;DHT22;8370;52.556;7.970;2023-06-22T15:39:22;23.50;99.90